Terminal Aerodrome Forecast
Issued by NWS Mt. Holly, NJ

Home | Current Version | Previous Version | Text Only | Print | Product List | Glossary On
Versions: 1 2 3 4 5 6 7 8 9 10 11 12 13 14
000
FTUS41 KPHI 281132
TAFACY
TAF
KACY 281132Z 2812/0112 35008KT P6SM SCT200
     FM282100 30005KT P6SM SCT200
     FM010200 VRB02KT P6SM SCT200=

USA.gov is the U.S. government's official web portal to all federal, state and local government web resources and services.